Stafford, Ohio
Current Conditions -  °F | °C
As of 6:21 AM on Friday 24 Oct 2014 (Local Time) from KPKB Reporting Station
Haze Haze  
Wind Chill: 36°   Ceiling: 100
Heat Index: 36°   Visibility: 6mi
Dew Point: 33°   Wind: 0mph
Humidity: 89%   Direction: NA
Pressure: 30.15"   Gusts: NA
Location:  39.71°N, 81.28°W
Report Text: KPKB 241021Z AUTO 00000KT 6SM BR BKN001 02/01 A3015 RMK AO2 T00220006
Loading
Personal Weather Stations






























Interactive Weather Map
Tropical Storm Tracking
New forecast layout! Learn more

10-Day Weather Forecast

Advertisements
Track Severe Weather on mobile